sensor_id;sensor_type;location;lat;lon;timestamp;pressure;altitude;pressure_sealevel;temperature;humidity
27685;BME280;46113;50.130;8.526;2024-01-30T00:02:25;100457.66;;;-2.65;82.40
27685;BME280;46113;50.130;8.526;2024-01-30T00:04:52;100452.50;;;-2.63;82.33
27685;BME280;46113;50.130;8.526;2024-01-30T00:07:19;100462.00;;;-2.65;82.60
27685;BME280;46113;50.130;8.526;2024-01-30T00:09:49;100462.88;;;-2.63;82.24
27685;BME280;46113;50.130;8.526;2024-01-30T00:12:16;100467.94;;;-2.71;81.82
27685;BME280;46113;50.130;8.526;2024-01-30T00:14:42;100460.97;;;-2.75;82.10
27685;BME280;46113;50.130;8.526;2024-01-30T00:17:12;100469.63;;;-2.75;82.24
27685;BME280;46113;50.130;8.526;2024-01-30T00:19:39;100468.75;;;-2.73;82.21
27685;BME280;46113;50.130;8.526;2024-01-30T00:22:06;100460.00;;;-2.80;82.47
27685;BME280;46113;50.130;8.526;2024-01-30T00:24:33;100472.84;;;-2.88;82.21
27685;BME280;46113;50.130;8.526;2024-01-30T00:27:00;100465.94;;;-2.88;82.24
27685;BME280;46113;50.130;8.526;2024-01-30T00:29:26;100464.25;;;-2.87;82.58
27685;BME280;46113;50.130;8.526;2024-01-30T00:31:56;100467.66;;;-2.88;83.02
27685;BME280;46113;50.130;8.526;2024-01-30T00:34:23;100467.66;;;-2.90;82.65
27685;BME280;46113;50.130;8.526;2024-01-30T00:36:50;100459.81;;;-2.93;82.29
27685;BME280;46113;50.130;8.526;2024-01-30T00:39:17;100463.31;;;-2.91;82.58
27685;BME280;46113;50.130;8.526;2024-01-30T00:41:45;100470.25;;;-2.88;83.00
27685;BME280;46113;50.130;8.526;2024-01-30T00:44:12;100471.88;;;-2.95;82.48
27685;BME280;46113;50.130;8.526;2024-01-30T00:46:39;100466.72;;;-2.93;82.36
27685;BME280;46113;50.130;8.526;2024-01-30T00:49:06;100458.88;;;-2.98;82.51
27685;BME280;46113;50.130;8.526;2024-01-30T00:51:33;100464.09;;;-2.96;81.91
27685;BME280;46113;50.130;8.526;2024-01-30T00:53:59;100460.38;;;-3.11;82.13
27685;BME280;46113;50.130;8.526;2024-01-30T00:56:26;100453.56;;;-3.06;82.41
27685;BME280;46113;50.130;8.526;2024-01-30T00:58:53;100457.00;;;-3.07;82.25
27685;BME280;46113;50.130;8.526;2024-01-30T01:01:20;100451.81;;;-3.07;83.18
27685;BME280;46113;50.130;8.526;2024-01-30T01:03:46;100451.81;;;-3.07;83.00
27685;BME280;46113;50.130;8.526;2024-01-30T01:06:15;100443.97;;;-3.11;82.43
27685;BME280;46113;50.130;8.526;2024-01-30T01:08:42;100453.38;;;-3.17;82.23
27685;BME280;46113;50.130;8.526;2024-01-30T01:11:09;100445.66;;;-3.13;83.13
27685;BME280;46113;50.130;8.526;2024-01-30T01:13:36;100449.25;;;-3.05;83.21
27685;BME280;46113;50.130;8.526;2024-01-30T01:16:03;100445.81;;;-3.03;83.39
27685;BME280;46113;50.130;8.526;2024-01-30T01:18:30;100449.34;;;-3.00;83.08
27685;BME280;46113;50.130;8.526;2024-01-30T01:20:57;100446.78;;;-2.99;83.05
27685;BME280;46113;50.130;8.526;2024-01-30T01:23:23;100452.00;;;-2.96;83.04
27685;BME280;46113;50.130;8.526;2024-01-30T01:25:50;100457.25;;;-2.91;82.79
27685;BME280;46113;50.130;8.526;2024-01-30T01:28:17;100450.28;;;-2.95;82.92
27685;BME280;46113;50.130;8.526;2024-01-30T01:30:44;100456.38;;;-2.92;83.01
27685;BME280;46113;50.130;8.526;2024-01-30T01:33:11;100462.34;;;-2.96;83.21
27685;BME280;46113;50.130;8.526;2024-01-30T01:35:40;100450.19;;;-3.00;82.72
27685;BME280;46113;50.130;8.526;2024-01-30T01:38:07;100458.84;;;-2.99;82.30
27685;BME280;46113;50.130;8.526;2024-01-30T01:40:34;100458.84;;;-2.99;83.07
27685;BME280;46113;50.130;8.526;2024-01-30T01:43:03;100458.81;;;-3.01;82.52
27685;BME280;46113;50.130;8.526;2024-01-30T01:45:30;100454.44;;;-3.04;83.12
27685;BME280;46113;50.130;8.526;2024-01-30T01:47:56;100457.88;;;-3.05;83.05
27685;BME280;46113;50.130;8.526;2024-01-30T01:50:24;100456.88;;;-3.13;82.72
27685;BME280;46113;50.130;8.526;2024-01-30T01:52:52;100458.72;;;-3.07;82.84
27685;BME280;46113;50.130;8.526;2024-01-30T01:55:21;100456.09;;;-3.09;82.93
27685;BME280;46113;50.130;8.526;2024-01-30T01:57:53;100456.09;;;-3.09;82.96
27685;BME280;46113;50.130;8.526;2024-01-30T02:00:21;100454.34;;;-3.10;82.97
27685;BME280;46113;50.130;8.526;2024-01-30T02:02:49;100457.81;;;-3.09;82.21
27685;BME280;46113;50.130;8.526;2024-01-30T02:05:16;100456.09;;;-3.09;82.83
27685;BME280;46113;50.130;8.526;2024-01-30T02:07:43;100451.75;;;-3.10;82.31
27685;BME280;46113;50.130;8.526;2024-01-30T02:10:10;100450.88;;;-3.12;82.51
27685;BME280;46113;50.130;8.526;2024-01-30T02:12:37;100443.81;;;-3.19;82.58
27685;BME280;46113;50.130;8.526;2024-01-30T02:15:05;100446.28;;;-3.27;81.80
27685;BME280;46113;50.130;8.526;2024-01-30T02:17:32;100446.81;;;-3.45;82.59
27685;BME280;46113;50.130;8.526;2024-01-30T02:19:59;100446.03;;;-3.41;82.68
27685;BME280;46113;50.130;8.526;2024-01-30T02:22:26;100440.88;;;-3.39;82.77
27685;BME280;46113;50.130;8.526;2024-01-30T02:24:53;100439.16;;;-3.39;82.59
27685;BME280;46113;50.130;8.526;2024-01-30T02:27:20;100447.00;;;-3.36;82.37
27685;BME280;46113;50.130;8.526;2024-01-30T02:29:47;100444.38;;;-3.37;82.51
27685;BME280;46113;50.130;8.526;2024-01-30T02:32:13;100435.75;;;-3.36;82.91
27685;BME280;46113;50.130;8.526;2024-01-30T02:34:40;100436.53;;;-3.42;82.72
27685;BME280;46113;50.130;8.526;2024-01-30T02:37:07;100433.88;;;-3.45;82.48
27685;BME280;46113;50.130;8.526;2024-01-30T02:39:33;100429.59;;;-3.45;82.92
27685;BME280;46113;50.130;8.526;2024-01-30T02:42:00;100433.97;;;-3.39;82.25
27685;BME280;46113;50.130;8.526;2024-01-30T02:44:27;100433.16;;;-3.36;82.89
27685;BME280;46113;50.130;8.526;2024-01-30T02:46:53;100434.94;;;-3.34;82.78
27685;BME280;46113;50.130;8.526;2024-01-30T02:49:21;100432.34;;;-3.35;82.61
27685;BME280;46113;50.130;8.526;2024-01-30T02:51:48;100430.56;;;-3.36;82.91
27685;BME280;46113;50.130;8.526;2024-01-30T02:54:15;100432.31;;;-3.37;82.94
27685;BME280;46113;50.130;8.526;2024-01-30T02:56:42;100432.25;;;-3.40;83.22
27685;BME280;46113;50.130;8.526;2024-01-30T02:59:09;100426.09;;;-3.45;82.44
27685;BME280;46113;50.130;8.526;2024-01-30T03:01:45;100430.28;;;-3.52;82.63
27685;BME280;46113;50.130;8.526;2024-01-30T03:04:13;100425.06;;;-3.55;82.99
27685;BME280;46113;50.130;8.526;2024-01-30T03:06:45;100425.91;;;-3.56;83.29
27685;BME280;46113;50.130;8.526;2024-01-30T03:09:12;100424.25;;;-3.52;83.09
27685;BME280;46113;50.130;8.526;2024-01-30T03:11:40;100422.63;;;-3.47;83.19
27685;BME280;46113;50.130;8.526;2024-01-30T03:14:06;100421.81;;;-3.43;82.72
27685;BME280;46113;50.130;8.526;2024-01-30T03:16:34;100416.63;;;-3.45;82.83
27685;BME280;46113;50.130;8.526;2024-01-30T03:19:01;100412.28;;;-3.46;82.90
27685;BME280;46113;50.130;8.526;2024-01-30T03:21:29;100411.31;;;-3.51;83.02
27685;BME280;46113;50.130;8.526;2024-01-30T03:23:56;100417.38;;;-3.50;82.82
27685;BME280;46113;50.130;8.526;2024-01-30T03:26:22;100421.59;;;-3.56;83.32
27685;BME280;46113;50.130;8.526;2024-01-30T03:28:49;100423.25;;;-3.59;82.94
27685;BME280;46113;50.130;8.526;2024-01-30T03:31:16;100430.16;;;-3.60;83.17
27685;BME280;46113;50.130;8.526;2024-01-30T03:33:43;100423.25;;;-3.59;83.39
27685;BME280;46113;50.130;8.526;2024-01-30T03:36:10;100423.38;;;-3.53;83.50
27685;BME280;46113;50.130;8.526;2024-01-30T03:38:37;100423.31;;;-3.58;83.43
27685;BME280;46113;50.130;8.526;2024-01-30T03:41:07;100423.25;;;-3.59;83.23
27685;BME280;46113;50.130;8.526;2024-01-30T03:43:34;100421.56;;;-3.57;83.16
27685;BME280;46113;50.130;8.526;2024-01-30T03:46:02;100424.13;;;-3.60;84.02
27685;BME280;46113;50.130;8.526;2024-01-30T03:48:29;100421.59;;;-3.56;83.17
27685;BME280;46113;50.130;8.526;2024-01-30T03:50:56;100417.28;;;-3.57;83.11
27685;BME280;46113;50.130;8.526;2024-01-30T03:53:23;100417.31;;;-3.55;82.94
27685;BME280;46113;50.130;8.526;2024-01-30T03:55:50;100422.50;;;-3.53;82.91
27685;BME280;46113;50.130;8.526;2024-01-30T03:58:17;100420.78;;;-3.53;83.07
27685;BME280;46113;50.130;8.526;2024-01-30T04:00:43;100418.13;;;-3.58;83.25
27685;BME280;46113;50.130;8.526;2024-01-30T04:03:11;100413.84;;;-3.56;82.93
27685;BME280;46113;50.130;8.526;2024-01-30T04:05:38;100419.03;;;-3.56;83.17
27685;BME280;46113;50.130;8.526;2024-01-30T04:08:05;100417.25;;;-3.58;83.17
27685;BME280;46113;50.130;8.526;2024-01-30T04:10:32;100424.94;;;-3.61;83.05
27685;BME280;46113;50.130;8.526;2024-01-30T04:12:58;100421.47;;;-3.63;82.89
27685;BME280;46113;50.130;8.526;2024-01-30T04:15:26;100422.34;;;-3.63;83.27
27685;BME280;46113;50.130;8.526;2024-01-30T04:17:53;100422.34;;;-3.61;82.40
27685;BME280;46113;50.130;8.526;2024-01-30T04:20:20;100425.63;;;-3.70;82.89
27685;BME280;46113;50.130;8.526;2024-01-30T04:22:46;100416.91;;;-3.75;83.07
27685;BME280;46113;50.130;8.526;2024-01-30T04:25:13;100422.00;;;-3.78;82.97
27685;BME280;46113;50.130;8.526;2024-01-30T04:27:40;100416.72;;;-3.85;83.24
27685;BME280;46113;50.130;8.526;2024-01-30T04:30:08;100422.81;;;-3.83;83.96
27685;BME280;46113;50.130;8.526;2024-01-30T04:32:35;100409.13;;;-3.77;83.38
27685;BME280;46113;50.130;8.526;2024-01-30T04:35:03;100413.44;;;-3.77;83.20
27685;BME280;46113;50.130;8.526;2024-01-30T04:37:36;100415.09;;;-3.79;83.29
27685;BME280;46113;50.130;8.526;2024-01-30T04:40:03;100419.44;;;-3.80;83.66
27685;BME280;46113;50.130;8.526;2024-01-30T04:42:31;100418.66;;;-3.74;83.16
27685;BME280;46113;50.130;8.526;2024-01-30T04:44:58;100427.88;;;-3.87;83.44
27685;BME280;46113;50.130;8.526;2024-01-30T04:47:25;100424.59;;;-3.80;83.33
27685;BME280;46113;50.130;8.526;2024-01-30T04:49:52;100429.00;;;-3.76;83.23
27685;BME280;46113;50.130;8.526;2024-01-30T04:52:18;100417.81;;;-3.75;83.33
27685;BME280;46113;50.130;8.526;2024-01-30T04:54:45;100418.66;;;-3.74;83.34
27685;BME280;46113;50.130;8.526;2024-01-30T04:57:12;100416.94;;;-3.74;83.11
27685;BME280;46113;50.130;8.526;2024-01-30T04:59:39;100424.69;;;-3.75;83.13
27685;BME280;46113;50.130;8.526;2024-01-30T05:02:06;100423.00;;;-3.73;83.06
27685;BME280;46113;50.130;8.526;2024-01-30T05:04:33;100426.38;;;-3.77;82.45
27685;BME280;46113;50.130;8.526;2024-01-30T05:07:00;100426.91;;;-3.92;82.89
27685;BME280;46113;50.130;8.526;2024-01-30T05:09:27;100429.47;;;-3.96;82.30
27685;BME280;46113;50.130;8.526;2024-01-30T05:11:55;100433.81;;;-3.91;83.07
27685;BME280;46113;50.130;8.526;2024-01-30T05:14:23;100431.28;;;-3.90;82.97
27685;BME280;46113;50.130;8.526;2024-01-30T05:16:50;100435.59;;;-3.89;82.88
27685;BME280;46113;50.130;8.526;2024-01-30T05:19:16;100433.91;;;-3.88;83.58
27685;BME280;46113;50.130;8.526;2024-01-30T05:21:44;100437.38;;;-3.88;82.82
27685;BME280;46113;50.130;8.526;2024-01-30T05:24:11;100438.19;;;-3.90;82.98
27685;BME280;46113;50.130;8.526;2024-01-30T05:26:38;100433.81;;;-3.91;82.31
27685;BME280;46113;50.130;8.526;2024-01-30T05:29:05;100439.84;;;-3.92;82.83
27685;BME280;46113;50.130;8.526;2024-01-30T05:31:33;100427.59;;;-4.01;83.08
27685;BME280;46113;50.130;8.526;2024-01-30T05:34:01;100437.19;;;-3.97;82.85
27685;BME280;46113;50.130;8.526;2024-01-30T05:36:28;100435.44;;;-3.98;83.32
27685;BME280;46113;50.130;8.526;2024-01-30T05:38:56;100431.94;;;-4.00;83.73
27685;BME280;46113;50.130;8.526;2024-01-30T05:41:22;100443.16;;;-4.00;83.25
27685;BME280;46113;50.130;8.526;2024-01-30T05:43:49;100437.13;;;-3.99;83.39
27685;BME280;46113;50.130;8.526;2024-01-30T05:46:16;100440.63;;;-3.97;82.73
27685;BME280;46113;50.130;8.526;2024-01-30T05:48:43;100428.56;;;-3.96;82.87
27685;BME280;46113;50.130;8.526;2024-01-30T05:51:10;100433.72;;;-3.98;82.88
27685;BME280;46113;50.130;8.526;2024-01-30T05:53:36;100443.19;;;-3.97;83.26
27685;BME280;46113;50.130;8.526;2024-01-30T05:56:04;100437.28;;;-3.91;82.57
27685;BME280;46113;50.130;8.526;2024-01-30T05:58:31;100439.00;;;-3.93;83.06
27685;BME280;46113;50.130;8.526;2024-01-30T06:00:57;100442.53;;;-3.88;83.21
27685;BME280;46113;50.130;8.526;2024-01-30T06:03:25;100436.50;;;-3.88;82.88
27685;BME280;46113;50.130;8.526;2024-01-30T06:05:52;100443.44;;;-3.86;83.09
27685;BME280;46113;50.130;8.526;2024-01-30T06:08:18;100446.91;;;-3.85;82.91
27685;BME280;46113;50.130;8.526;2024-01-30T06:10:45;100446.88;;;-3.87;82.89
27685;BME280;46113;50.130;8.526;2024-01-30T06:13:12;100445.13;;;-3.88;83.08
27685;BME280;46113;50.130;8.526;2024-01-30T06:15:39;100439.16;;;-3.84;82.73
27685;BME280;46113;50.130;8.526;2024-01-30T06:18:06;100435.75;;;-3.83;82.80
27685;BME280;46113;50.130;8.526;2024-01-30T06:20:33;100447.84;;;-3.82;82.58
27685;BME280;46113;50.130;8.526;2024-01-30T06:23:00;100443.34;;;-3.89;82.47
27685;BME280;46113;50.130;8.526;2024-01-30T06:25:27;100444.16;;;-3.91;82.59
27685;BME280;46113;50.130;8.526;2024-01-30T06:27:54;100444.16;;;-3.91;82.47
27685;BME280;46113;50.130;8.526;2024-01-30T06:30:21;100450.31;;;-3.88;82.65
27685;BME280;46113;50.130;8.526;2024-01-30T06:32:47;100443.41;;;-3.87;82.92
27685;BME280;46113;50.130;8.526;2024-01-30T06:35:15;100442.53;;;-3.88;82.47
27685;BME280;46113;50.130;8.526;2024-01-30T06:37:41;100440.69;;;-3.93;82.94
27685;BME280;46113;50.130;8.526;2024-01-30T06:40:09;100443.31;;;-3.92;83.00
27685;BME280;46113;50.130;8.526;2024-01-30T06:42:36;100437.88;;;-4.04;83.19
27685;BME280;46113;50.130;8.526;2024-01-30T06:45:02;100436.00;;;-4.12;83.47
27685;BME280;46113;50.130;8.526;2024-01-30T06:47:29;100441.38;;;-4.02;83.15
27685;BME280;46113;50.130;8.526;2024-01-30T06:49:57;100440.69;;;-3.93;83.43
27685;BME280;46113;50.130;8.526;2024-01-30T06:52:24;100444.09;;;-3.96;83.26
27685;BME280;46113;50.130;8.526;2024-01-30T06:54:51;100444.16;;;-3.93;83.18
27685;BME280;46113;50.130;8.526;2024-01-30T06:57:18;100441.66;;;-3.88;82.81
27685;BME280;46113;50.130;8.526;2024-01-30T06:59:45;100445.19;;;-3.85;82.68
27685;BME280;46113;50.130;8.526;2024-01-30T07:02:11;100442.63;;;-3.83;83.30
27685;BME280;46113;50.130;8.526;2024-01-30T07:04:38;100443.44;;;-3.86;83.23
27685;BME280;46113;50.130;8.526;2024-01-30T07:07:12;100434.81;;;-3.85;82.98
27685;BME280;46113;50.130;8.526;2024-01-30T07:09:40;100440.94;;;-3.83;83.36
27685;BME280;46113;50.130;8.526;2024-01-30T07:12:07;100447.88;;;-3.78;82.77
27685;BME280;46113;50.130;8.526;2024-01-30T07:14:34;100442.59;;;-3.85;82.51
27685;BME280;46113;50.130;8.526;2024-01-30T07:17:02;100447.03;;;-3.79;83.48
27685;BME280;46113;50.130;8.526;2024-01-30T07:19:29;100443.63;;;-3.76;82.67
27685;BME280;46113;50.130;8.526;2024-01-30T07:21:56;100447.06;;;-3.77;82.53
27685;BME280;46113;50.130;8.526;2024-01-30T07:24:22;100442.78;;;-3.75;82.80
27685;BME280;46113;50.130;8.526;2024-01-30T07:26:49;100445.47;;;-3.69;82.86
27685;BME280;46113;50.130;8.526;2024-01-30T07:29:16;100453.34;;;-3.64;82.88
27685;BME280;46113;50.130;8.526;2024-01-30T07:31:43;100449.03;;;-3.64;83.18
27685;BME280;46113;50.130;8.526;2024-01-30T07:34:09;100451.63;;;-3.65;83.40
27685;BME280;46113;50.130;8.526;2024-01-30T07:36:37;100442.91;;;-3.71;82.84
27685;BME280;46113;50.130;8.526;2024-01-30T07:39:05;100442.41;;;-3.49;83.46
27685;BME280;46113;50.130;8.526;2024-01-30T07:41:32;100445.19;;;-3.40;83.20
27685;BME280;46113;50.130;8.526;2024-01-30T07:43:59;100441.78;;;-3.37;82.30
27685;BME280;46113;50.130;8.526;2024-01-30T07:46:26;100447.00;;;-3.36;82.44
27685;BME280;46113;50.130;8.526;2024-01-30T07:48:53;100447.59;;;-3.49;82.04
27685;BME280;46113;50.130;8.526;2024-01-30T07:51:21;100451.31;;;-3.35;82.82
27685;BME280;46113;50.130;8.526;2024-01-30T07:53:48;100450.53;;;-3.31;82.65
27685;BME280;46113;50.130;8.526;2024-01-30T07:56:14;100452.09;;;-3.39;81.56
27685;BME280;46113;50.130;8.526;2024-01-30T07:58:42;100448.91;;;-3.25;82.57
27685;BME280;46113;50.130;8.526;2024-01-30T08:01:09;100453.94;;;-3.33;81.69
27685;BME280;46113;50.130;8.526;2024-01-30T08:03:36;100460.00;;;-3.33;82.26
27685;BME280;46113;50.130;8.526;2024-01-30T08:06:03;100458.53;;;-3.17;82.63
27685;BME280;46113;50.130;8.526;2024-01-30T08:08:30;100456.88;;;-3.13;82.34
27685;BME280;46113;50.130;8.526;2024-01-30T08:10:57;100454.28;;;-3.13;81.89
27685;BME280;46113;50.130;8.526;2024-01-30T08:13:24;100448.41;;;-3.03;82.28
27685;BME280;46113;50.130;8.526;2024-01-30T08:15:51;100455.38;;;-3.00;81.81
27685;BME280;46113;50.130;8.526;2024-01-30T08:18:18;100456.06;;;-3.10;81.92
27685;BME280;46113;50.130;8.526;2024-01-30T08:20:44;100453.72;;;-2.96;81.78
27685;BME280;46113;50.130;8.526;2024-01-30T08:23:12;100449.38;;;-2.97;80.81
27685;BME280;46113;50.130;8.526;2024-01-30T08:25:38;100449.59;;;-2.85;81.39
27685;BME280;46113;50.130;8.526;2024-01-30T08:28:05;100454.06;;;-2.75;81.62
27685;BME280;46113;50.130;8.526;2024-01-30T08:30:32;100449.84;;;-2.69;81.32
27685;BME280;46113;50.130;8.526;2024-01-30T08:32:59;100454.13;;;-2.70;80.75
27685;BME280;46113;50.130;8.526;2024-01-30T08:35:25;100458.75;;;-2.52;80.92
27685;BME280;46113;50.130;8.526;2024-01-30T08:37:52;100459.44;;;-2.62;80.49
27685;BME280;46113;50.130;8.526;2024-01-30T08:40:20;100457.97;;;-2.46;81.38
27685;BME280;46113;50.130;8.526;2024-01-30T08:42:47;100459.66;;;-2.50;80.85
27685;BME280;46113;50.130;8.526;2024-01-30T08:45:14;100466.88;;;-2.27;81.33
27685;BME280;46113;50.130;8.526;2024-01-30T08:47:41;100468.53;;;-2.32;80.35
27685;BME280;46113;50.130;8.526;2024-01-30T08:50:08;100461.78;;;-2.22;80.28
27685;BME280;46113;50.130;8.526;2024-01-30T08:52:35;100462.56;;;-2.26;79.95
27685;BME280;46113;50.130;8.526;2024-01-30T08:55:02;100469.03;;;-1.96;79.73
27685;BME280;46113;50.130;8.526;2024-01-30T08:57:30;100471.53;;;-2.04;78.87
27685;BME280;46113;50.130;8.526;2024-01-30T08:59:57;100463.78;;;-1.99;78.60
27685;BME280;46113;50.130;8.526;2024-01-30T09:02:23;100466.66;;;-1.79;77.93
27685;BME280;46113;50.130;8.526;2024-01-30T09:04:50;100474.47;;;-1.76;77.83
27685;BME280;46113;50.130;8.526;2024-01-30T09:07:17;100469.56;;;-1.52;77.67
27685;BME280;46113;50.130;8.526;2024-01-30T09:09:44;100467.66;;;-1.67;77.49
27685;BME280;46113;50.130;8.526;2024-01-30T09:12:11;100474.97;;;-1.32;78.05
27685;BME280;46113;50.130;8.526;2024-01-30T09:14:39;100473.19;;;-1.36;77.18
27685;BME280;46113;50.130;8.526;2024-01-30T09:17:07;100467.03;;;-1.48;77.29
27685;BME280;46113;50.130;8.526;2024-01-30T09:19:34;100476.94;;;-1.11;77.47
27685;BME280;46113;50.130;8.526;2024-01-30T09:22:02;100471.84;;;-1.01;77.58
27685;BME280;46113;50.130;8.526;2024-01-30T09:24:29;100474.38;;;-1.06;76.67
27685;BME280;46113;50.130;8.526;2024-01-30T09:26:56;100478.78;;;-0.97;77.71
27685;BME280;46113;50.130;8.526;2024-01-30T09:29:23;100470.22;;;-0.85;76.92
27685;BME280;46113;50.130;8.526;2024-01-30T09:31:49;100484.16;;;-0.79;77.20
27685;BME280;46113;50.130;8.526;2024-01-30T09:34:16;100482.44;;;-0.77;76.68
27685;BME280;46113;50.130;8.526;2024-01-30T09:36:43;100487.69;;;-0.72;76.52
27685;BME280;46113;50.130;8.526;2024-01-30T09:39:10;100489.41;;;-0.74;76.80
27685;BME280;46113;50.130;8.526;2024-01-30T09:42:05;100482.66;;;-0.48;76.52
27685;BME280;46113;50.130;8.526;2024-01-30T09:44:34;100481.84;;;-0.40;75.63
27685;BME280;46113;50.130;8.526;2024-01-30T09:47:02;100481.91;;;-0.35;76.08
27685;BME280;46113;50.130;8.526;2024-01-30T09:49:32;100479.38;;;-0.16;75.59
27685;BME280;46113;50.130;8.526;2024-01-30T09:52:02;100469.91;;;-0.06;75.29
27685;BME280;46113;50.130;8.526;2024-01-30T09:54:30;100476.88;;;-0.08;75.69
27685;BME280;46113;50.130;8.526;2024-01-30T09:57:02;100467.38;;;0.03;75.56
27685;BME280;46113;50.130;8.526;2024-01-30T09:59:28;100468.16;;;-0.12;75.38
27685;BME280;46113;50.130;8.526;2024-01-30T10:01:55;100468.22;;;0.00;74.41
27685;BME280;46113;50.130;8.526;2024-01-30T10:04:23;100458.72;;;0.10;75.11
27685;BME280;46113;50.130;8.526;2024-01-30T10:06:51;100462.22;;;0.17;74.92
27685;BME280;46113;50.130;8.526;2024-01-30T10:09:17;100463.97;;;0.21;74.28
27685;BME280;46113;50.130;8.526;2024-01-30T10:11:44;100462.38;;;0.53;74.30
27685;BME280;46113;50.130;8.526;2024-01-30T10:14:11;100468.47;;;0.58;74.38
27685;BME280;46113;50.130;8.526;2024-01-30T10:16:38;100460.66;;;0.66;74.47
27685;BME280;46113;50.130;8.526;2024-01-30T10:19:04;100467.53;;;0.43;73.98
27685;BME280;46113;50.130;8.526;2024-01-30T10:21:32;100471.94;;;0.63;73.82
27685;BME280;46113;50.130;8.526;2024-01-30T10:23:59;100465.00;;;0.65;73.85
27685;BME280;46113;50.130;8.526;2024-01-30T10:26:26;100457.22;;;0.81;73.47
27685;BME280;46113;50.130;8.526;2024-01-30T10:28:52;100459.81;;;0.68;72.55
27685;BME280;46113;50.130;8.526;2024-01-30T10:31:19;100466.69;;;0.52;72.18
27685;BME280;46113;50.130;8.526;2024-01-30T10:33:46;100467.59;;;0.65;72.44
27685;BME280;46113;50.130;8.526;2024-01-30T10:36:14;100461.56;;;0.79;72.32
27685;BME280;46113;50.130;8.526;2024-01-30T10:38:47;100469.38;;;0.79;71.48
27685;BME280;46113;50.130;8.526;2024-01-30T10:41:25;100468.50;;;0.85;71.71
27685;BME280;46113;50.130;8.526;2024-01-30T10:44:02;100459.88;;;1.06;71.64
27685;BME280;46113;50.130;8.526;2024-01-30T10:46:31;100470.31;;;1.14;70.82
27685;BME280;46113;50.130;8.526;2024-01-30T10:48:59;100460.75;;;1.47;70.66
27685;BME280;46113;50.130;8.526;2024-01-30T10:51:27;100458.13;;;1.34;70.95
27685;BME280;46113;50.130;8.526;2024-01-30T10:53:56;100459.91;;;1.32;70.78
27685;BME280;46113;50.130;8.526;2024-01-30T10:56:24;100446.81;;;1.43;70.89
27685;BME280;46113;50.130;8.526;2024-01-30T10:58:53;100449.41;;;1.60;70.86
27685;BME280;46113;50.130;8.526;2024-01-30T11:01:21;100442.44;;;1.69;70.59
27685;BME280;46113;50.130;8.526;2024-01-30T11:03:52;100436.41;;;1.40;70.84
27685;BME280;46113;50.130;8.526;2024-01-30T11:06:23;100443.28;;;1.79;69.86
27685;BME280;46113;50.130;8.526;2024-01-30T11:09:04;100445.09;;;1.64;69.23
27685;BME280;46113;50.130;8.526;2024-01-30T11:11:56;100431.13;;;1.81;68.56
27685;BME280;46113;50.130;8.526;2024-01-30T11:14:28;100423.28;;;1.81;68.84
27685;BME280;46113;50.130;8.526;2024-01-30T11:16:59;100432.81;;;1.99;69.59
27685;BME280;46113;50.130;8.526;2024-01-30T11:19:26;100417.13;;;1.97;69.06
27685;BME280;46113;50.130;8.526;2024-01-30T11:21:54;100418.88;;;2.05;69.23
27685;BME280;46113;50.130;8.526;2024-01-30T11:24:24;100422.31;;;2.11;69.75
27685;BME280;46113;50.130;8.526;2024-01-30T11:27:00;100426.72;;;1.97;69.13
27685;BME280;46113;50.130;8.526;2024-01-30T11:29:28;100432.84;;;1.93;69.25
27685;BME280;46113;50.130;8.526;2024-01-30T11:31:57;100421.41;;;2.19;69.15
27685;BME280;46113;50.130;8.526;2024-01-30T11:34:25;100429.25;;;2.14;68.21
27685;BME280;46113;50.130;8.526;2024-01-30T11:37:04;100430.91;;;2.32;68.22
27685;BME280;46113;50.130;8.526;2024-01-30T11:39:36;100428.28;;;2.32;67.74
27685;BME280;46113;50.130;8.526;2024-01-30T11:42:04;100421.19;;;2.58;67.97
27685;BME280;46113;50.130;8.526;2024-01-30T11:44:32;100422.94;;;2.57;67.58
27685;BME280;46113;50.130;8.526;2024-01-30T11:46:58;100416.88;;;2.53;67.76
27685;BME280;46113;50.130;8.526;2024-01-30T11:49:25;100414.16;;;2.69;67.21
27685;BME280;46113;50.130;8.526;2024-01-30T11:51:52;100416.75;;;2.71;67.80
27685;BME280;46113;50.130;8.526;2024-01-30T11:54:20;100416.81;;;2.64;68.06
27685;BME280;46113;50.130;8.526;2024-01-30T11:56:47;100407.97;;;2.81;67.96
27685;BME280;46113;50.130;8.526;2024-01-30T11:59:14;100414.16;;;2.71;67.37
27685;BME280;46113;50.130;8.526;2024-01-30T12:01:40;100415.81;;;2.82;67.46
27685;BME280;46113;50.130;8.526;2024-01-30T12:04:09;100400.91;;;2.94;67.55
27685;BME280;46113;50.130;8.526;2024-01-30T12:06:37;100405.41;;;2.75;67.15
27685;BME280;46113;50.130;8.526;2024-01-30T12:09:05;100394.97;;;2.72;66.67
27685;BME280;46113;50.130;8.526;2024-01-30T12:11:47;100393.00;;;3.02;66.78
27685;BME280;46113;50.130;8.526;2024-01-30T12:14:15;100391.22;;;3.05;67.59
27685;BME280;46113;50.130;8.526;2024-01-30T12:16:42;100390.25;;;3.17;67.78
27685;BME280;46113;50.130;8.526;2024-01-30T12:19:09;100392.94;;;3.10;66.71
27685;BME280;46113;50.130;8.526;2024-01-30T12:21:38;100390.38;;;3.05;65.71
27685;BME280;46113;50.130;8.526;2024-01-30T12:24:05;100390.03;;;3.42;66.86
27685;BME280;46113;50.130;8.526;2024-01-30T12:26:33;100383.00;;;3.47;66.83
27685;BME280;46113;50.130;8.526;2024-01-30T12:29:03;100385.03;;;3.17;66.52
27685;BME280;46113;50.130;8.526;2024-01-30T12:31:32;100378.59;;;3.53;67.03
27685;BME280;46113;50.130;8.526;2024-01-30T12:34:00;100371.47;;;3.69;65.74
27685;BME280;46113;50.130;8.526;2024-01-30T12:36:29;100381.94;;;3.69;66.19
27685;BME280;46113;50.130;8.526;2024-01-30T12:38:57;100380.16;;;3.71;66.58
27685;BME280;46113;50.130;8.526;2024-01-30T12:41:25;100369.69;;;3.71;66.03
27685;BME280;46113;50.130;8.526;2024-01-30T12:43:57;100373.16;;;3.73;66.47
27685;BME280;46113;50.130;8.526;2024-01-30T12:46:28;100370.38;;;3.87;66.56
27685;BME280;46113;50.130;8.526;2024-01-30T12:48:56;100367.03;;;3.74;67.21
27685;BME280;46113;50.130;8.526;2024-01-30T12:51:23;100361.81;;;3.74;67.16
27685;BME280;46113;50.130;8.526;2024-01-30T12:53:50;100367.59;;;3.99;66.80
27685;BME280;46113;50.130;8.526;2024-01-30T12:56:17;100365.84;;;4.00;66.67